createdAt,value
2018-10-12T00:00:48.153Z,0.00
2018-10-12T00:01:48.144Z,0.00
2018-10-12T00:02:48.134Z,0.00
2018-10-12T00:03:48.212Z,0.00
2018-10-12T00:04:48.108Z,0.00
2018-10-12T00:05:48.380Z,0.00
2018-10-12T00:06:48.091Z,0.00
2018-10-12T00:07:48.076Z,0.00
2018-10-12T00:08:48.066Z,0.00
2018-10-12T00:09:48.126Z,0.00
2018-10-12T00:10:48.046Z,0.00
2018-10-12T00:11:48.034Z,0.00
2018-10-12T00:12:48.026Z,0.00
2018-10-12T00:13:48.014Z,0.00
2018-10-12T00:14:48.003Z,0.00
2018-10-12T00:15:48.067Z,0.00
2018-10-12T00:16:47.981Z,0.00
2018-10-12T00:17:48.253Z,0.00
2018-10-12T00:18:47.960Z,0.00
2018-10-12T00:19:47.953Z,0.00
2018-10-12T00:20:47.938Z,0.00
2018-10-12T00:21:48.030Z,0.00
2018-10-12T00:22:47.917Z,0.00
2018-10-12T00:23:47.907Z,0.00
2018-10-12T00:24:48.170Z,0.00
2018-10-12T00:25:47.885Z,0.00
2018-10-12T00:26:47.875Z,0.00
2018-10-12T00:27:47.938Z,0.00
2018-10-12T00:28:47.855Z,0.00
2018-10-12T00:29:47.847Z,0.00
2018-10-12T00:30:47.834Z,0.00
2018-10-12T00:31:47.822Z,0.00
2018-10-12T00:32:47.841Z,0.00
2018-10-12T00:33:48.552Z,0.00
2018-10-12T00:34:47.792Z,0.00
2018-10-12T00:35:47.779Z,0.00
2018-10-12T00:36:47.772Z,0.00
2018-10-12T00:37:48.060Z,0.00
2018-10-12T00:38:47.749Z,0.00
2018-10-12T00:39:47.839Z,0.00
2018-10-12T00:40:47.727Z,0.00
2018-10-12T00:41:47.715Z,0.00
2018-10-12T00:42:47.705Z,0.00
2018-10-12T00:43:47.694Z,0.00
2018-10-12T00:44:47.980Z,0.00
2018-10-12T00:45:47.748Z,0.00
2018-10-12T00:46:47.662Z,0.00
2018-10-12T00:47:47.652Z,0.00
2018-10-12T00:48:47.645Z,0.00
2018-10-12T00:49:47.708Z,0.00
2018-10-12T00:50:47.629Z,0.00
2018-10-12T00:51:47.684Z,0.00
2018-10-12T00:52:47.599Z,0.00
2018-10-12T00:53:47.589Z,0.00
2018-10-12T00:54:47.579Z,0.00
2018-10-12T00:55:47.569Z,0.00
2018-10-12T00:56:47.557Z,0.00
2018-10-12T00:57:47.925Z,0.00
2018-10-12T00:58:47.536Z,0.00
2018-10-12T00:59:47.525Z,0.00
2018-10-12T01:00:47.516Z,0.00
2018-10-12T01:01:47.504Z,0.00
2018-10-12T01:02:47.493Z,0.00
2018-10-12T01:03:47.555Z,0.00
2018-10-12T01:04:47.754Z,0.00
2018-10-12T01:05:47.465Z,0.00
2018-10-12T01:06:47.545Z,0.00
2018-10-12T01:07:47.439Z,0.00
2018-10-12T01:08:47.430Z,0.00
2018-10-12T01:09:47.495Z,0.00
2018-10-12T01:10:47.411Z,0.00
2018-10-12T01:11:47.689Z,0.00
2018-10-12T01:12:47.388Z,0.00
2018-10-12T01:13:47.376Z,0.00
2018-10-12T01:14:47.368Z,0.00
2018-10-12T01:15:47.490Z,0.00
2018-10-12T01:16:47.344Z,0.00
2018-10-12T01:17:47.334Z,0.00
2018-10-12T01:18:47.604Z,0.00
2018-10-12T01:19:47.312Z,0.00
2018-10-12T01:20:47.302Z,0.00
2018-10-12T01:21:47.366Z,0.00
2018-10-12T01:22:47.283Z,0.00
2018-10-12T01:23:47.270Z,0.00
2018-10-12T01:24:47.259Z,0.00
2018-10-12T01:25:47.530Z,0.00
2018-10-12T01:26:47.238Z,0.00
2018-10-12T01:27:47.302Z,0.00
2018-10-12T01:28:47.219Z,0.00
2018-10-12T01:29:47.205Z,0.00
2018-10-12T01:30:47.194Z,0.00
2018-10-12T01:31:47.185Z,0.00
2018-10-12T01:32:47.176Z,0.00
2018-10-12T01:33:47.282Z,0.00
2018-10-12T01:34:47.152Z,0.00
2018-10-12T01:35:47.140Z,0.00
2018-10-12T01:36:47.131Z,0.00
2018-10-12T01:37:47.122Z,0.00
2018-10-12T01:38:47.394Z,0.00
2018-10-12T01:39:48.090Z,0.00
2018-10-12T01:40:47.088Z,0.00
2018-10-12T01:41:47.077Z,0.00
2018-10-12T01:42:47.066Z,0.00
2018-10-12T01:43:47.056Z,0.00
2018-10-12T01:44:47.048Z,0.00
2018-10-12T01:45:47.109Z,0.00
2018-10-12T01:46:47.023Z,0.00
2018-10-12T01:47:47.013Z,0.00
2018-10-12T01:48:47.002Z,0.00
2018-10-12T01:49:46.991Z,0.00
2018-10-12T01:50:47.260Z,0.00
2018-10-12T01:51:47.057Z,0.00
2018-10-12T01:52:46.958Z,0.00
2018-10-12T01:53:46.953Z,0.00
2018-10-12T01:54:46.937Z,0.00
2018-10-12T01:55:47.589Z,0.00
2018-10-12T01:56:47.869Z,0.00
2018-10-12T01:57:46.987Z,0.00
2018-10-12T01:58:46.895Z,0.00
2018-10-12T01:59:46.884Z,0.00
2018-10-12T02:02:26.296Z,0.00
2018-10-12T02:03:26.198Z,0.00
2018-10-12T02:04:26.189Z,0.00
2018-10-12T02:05:26.184Z,0.00
2018-10-12T02:06:26.168Z,0.00
2018-10-12T02:07:26.157Z,0.00
2018-10-12T02:08:26.477Z,0.00
2018-10-12T02:09:26.136Z,0.00
2018-10-12T02:10:26.130Z,0.00
2018-10-12T02:11:27.045Z,0.00
2018-10-12T02:12:26.110Z,0.00
2018-10-12T02:13:26.100Z,0.00
2018-10-12T02:14:26.130Z,0.00
2018-10-12T02:15:26.377Z,0.00
2018-10-12T02:16:26.071Z,0.00
2018-10-12T02:17:26.059Z,0.00
2018-10-12T02:18:26.047Z,0.00
2018-10-12T02:19:26.037Z,0.00
2018-10-12T02:20:26.099Z,0.00
2018-10-12T02:21:26.021Z,0.00
2018-10-12T02:22:26.286Z,0.00
2018-10-12T02:23:25.994Z,0.00
2018-10-12T02:24:25.983Z,0.00
2018-10-12T02:25:25.976Z,0.00
2018-10-12T02:26:26.003Z,0.00
2018-10-12T02:27:25.955Z,0.00
2018-10-12T02:28:25.945Z,0.00
2018-10-12T02:29:26.207Z,0.00
2018-10-12T02:30:25.921Z,0.00
2018-10-12T02:31:25.914Z,0.00
2018-10-12T02:32:26.773Z,0.00
2018-10-12T02:33:25.890Z,0.00
2018-10-12T02:34:25.879Z,0.00
2018-10-12T02:35:25.865Z,0.00
2018-10-12T02:36:26.138Z,0.00
2018-10-12T02:37:25.846Z,0.00
2018-10-12T02:38:25.947Z,0.00
2018-10-12T02:39:25.827Z,0.00
2018-10-12T02:40:25.813Z,0.00
2018-10-12T02:41:25.809Z,0.00
2018-10-12T02:42:25.793Z,0.00
2018-10-12T02:43:26.096Z,0.00
2018-10-12T02:44:25.898Z,0.00
2018-10-12T02:45:25.764Z,0.00
2018-10-12T02:46:25.752Z,0.00
2018-10-12T02:47:25.746Z,0.00
2018-10-12T02:48:25.729Z,0.00
2018-10-12T02:49:25.717Z,0.00
2018-10-12T02:50:26.078Z,0.00
2018-10-12T02:51:25.697Z,0.00
2018-10-12T02:52:25.684Z,0.00
2018-10-12T02:53:25.673Z,0.00
2018-10-12T02:54:25.664Z,0.00
2018-10-12T02:55:25.652Z,0.00
2018-10-12T02:56:25.740Z,0.00
2018-10-12T02:57:25.912Z,0.00
2018-10-12T02:58:25.620Z,0.00
2018-10-12T02:59:25.608Z,0.00
2018-10-12T03:00:25.599Z,0.00
2018-10-12T03:01:25.589Z,0.00
2018-10-12T03:02:25.650Z,0.00
2018-10-12T03:03:25.566Z,0.00
2018-10-12T03:04:25.841Z,0.00
2018-10-12T03:05:25.544Z,0.00
2018-10-12T03:06:25.535Z,0.00
2018-10-12T03:07:25.523Z,0.00
2018-10-12T03:08:25.585Z,0.00
2018-10-12T03:09:25.503Z,0.00
2018-10-12T03:10:25.491Z,0.00
2018-10-12T03:11:25.761Z,0.00
2018-10-12T03:12:25.473Z,0.00
2018-10-12T03:13:25.459Z,0.00
2018-10-12T03:14:25.791Z,0.00
2018-10-12T03:15:25.437Z,0.00
2018-10-12T03:16:25.428Z,0.00
2018-10-12T03:17:25.415Z,0.00
2018-10-12T03:18:25.712Z,0.00
2018-10-12T03:19:25.397Z,0.00
2018-10-12T03:20:25.456Z,0.00
2018-10-12T03:21:25.377Z,0.00
2018-10-12T03:22:25.363Z,0.00
2018-10-12T03:23:25.352Z,0.00
2018-10-12T03:24:25.341Z,0.00
2018-10-12T03:25:25.610Z,0.00
2018-10-12T03:26:25.393Z,0.00
2018-10-12T03:27:25.310Z,0.00
2018-10-12T03:28:25.299Z,0.00
2018-10-12T03:29:25.289Z,0.00
2018-10-12T03:30:25.276Z,0.00
2018-10-12T03:31:25.265Z,0.00
2018-10-12T03:32:25.419Z,0.00
2018-10-12T03:33:25.247Z,0.00
2018-10-12T03:34:25.234Z,0.00
2018-10-12T03:35:25.228Z,0.00
2018-10-12T03:36:25.217Z,0.00
2018-10-12T03:37:25.271Z,0.00
2018-10-12T03:38:25.541Z,0.00
2018-10-12T03:39:25.180Z,0.00
2018-10-12T03:40:25.169Z,0.00
2018-10-12T03:41:25.157Z,0.00
2018-10-12T03:42:25.146Z,0.00
2018-10-12T03:43:25.140Z,0.00
2018-10-12T03:44:25.222Z,0.00
2018-10-12T03:45:25.398Z,0.00
2018-10-12T03:46:25.103Z,0.00
2018-10-12T03:47:25.095Z,0.00
2018-10-12T03:48:25.083Z,0.00
2018-10-12T03:49:25.071Z,0.00
2018-10-12T03:50:25.145Z,0.00
2018-10-12T03:51:25.050Z,0.00
2018-10-12T03:52:25.408Z,0.00
2018-10-12T03:53:25.029Z,0.00
2018-10-12T03:54:25.018Z,0.00
2018-10-12T03:55:25.006Z,0.00
2018-10-12T03:56:25.071Z,0.00
2018-10-12T03:57:24.984Z,0.00
2018-10-12T03:58:24.976Z,0.00
2018-10-12T03:59:25.406Z,0.00
2018-10-12T04:00:24.953Z,0.00
2018-10-12T04:01:24.941Z,0.00
2018-10-12T04:02:25.006Z,0.00
2018-10-12T04:03:24.920Z,0.00
2018-10-12T04:04:24.914Z,0.00
2018-10-12T04:05:24.898Z,0.00
2018-10-12T04:06:25.218Z,0.00
2018-10-12T04:07:24.879Z,0.00
2018-10-12T04:08:24.964Z,0.00
2018-10-12T04:09:24.857Z,0.00
2018-10-12T04:10:24.848Z,0.00
2018-10-12T04:11:24.833Z,0.00
2018-10-12T04:12:24.883Z,0.00
2018-10-12T04:13:25.247Z,0.00
2018-10-12T04:14:25.570Z,0.00
2018-10-12T04:15:24.791Z,0.00
2018-10-12T04:16:24.780Z,0.00
2018-10-12T04:17:24.768Z,0.00
2018-10-12T04:18:24.758Z,0.00
2018-10-12T04:19:24.754Z,0.00
2018-10-12T04:20:25.307Z,0.00
2018-10-12T04:21:24.737Z,0.00
2018-10-12T04:22:24.723Z,0.00
2018-10-12T04:23:24.720Z,0.00
2018-10-12T04:24:24.693Z,0.00
2018-10-12T04:25:24.683Z,0.00
2018-10-12T04:26:24.765Z,0.00
2018-10-12T04:27:25.082Z,0.00
2018-10-12T04:28:24.665Z,0.00
2018-10-12T04:29:24.717Z,0.00
2018-10-12T04:30:24.655Z,0.00
2018-10-12T04:31:24.667Z,0.00
2018-10-12T04:32:24.762Z,0.00
2018-10-12T04:33:24.598Z,0.00
2018-10-12T04:34:24.902Z,0.00
2018-10-12T04:35:24.575Z,0.00
2018-10-12T04:36:24.564Z,0.00
2018-10-12T04:37:24.552Z,0.00
2018-10-12T04:38:24.617Z,0.00
2018-10-12T04:39:24.530Z,0.00
2018-10-12T04:40:24.521Z,0.00
2018-10-12T04:41:24.932Z,0.00
2018-10-12T04:42:24.498Z,0.00
2018-10-12T04:43:24.487Z,0.00
2018-10-12T04:44:24.619Z,0.00
2018-10-12T04:45:24.466Z,0.00
2018-10-12T04:46:24.455Z,0.00
2018-10-12T04:47:24.522Z,0.00
2018-10-12T04:48:24.747Z,0.00
2018-10-12T04:49:24.424Z,0.00
2018-10-12T04:50:24.481Z,0.00
2018-10-12T04:51:24.401Z,0.00
2018-10-12T04:52:24.389Z,0.00
2018-10-12T04:53:24.394Z,0.00
2018-10-12T04:54:24.368Z,0.00
2018-10-12T04:55:24.782Z,0.00
2018-10-12T04:56:24.422Z,0.00
2018-10-12T04:57:24.337Z,0.00
2018-10-12T04:58:24.324Z,0.00
2018-10-12T04:59:24.332Z,0.00
2018-10-12T05:00:24.302Z,0.00
2018-10-12T05:01:24.291Z,0.00
2018-10-12T05:02:24.365Z,0.00
2018-10-12T05:03:24.269Z,0.00
2018-10-12T05:04:24.260Z,0.00
2018-10-12T05:05:24.247Z,0.00
2018-10-12T05:06:24.235Z,0.00
2018-10-12T05:07:24.226Z,0.00
2018-10-12T05:08:24.616Z,0.00
2018-10-12T05:09:24.206Z,0.00
2018-10-12T05:10:24.193Z,0.00
2018-10-12T05:11:24.182Z,0.00
2018-10-12T05:12:24.172Z,0.00
2018-10-12T05:13:24.244Z,0.00
2018-10-12T05:14:24.432Z,0.00
2018-10-12T05:15:24.198Z,0.00
2018-10-12T05:16:24.210Z,0.00
2018-10-12T05:17:25.041Z,0.00
2018-10-12T05:18:25.047Z,0.00
2018-10-12T05:19:24.101Z,0.00
2018-10-12T05:20:24.807Z,0.00
2018-10-12T05:21:24.090Z,0.00
2018-10-12T05:22:24.073Z,0.00
2018-10-12T05:23:24.079Z,0.00
2018-10-12T05:24:24.061Z,0.00
2018-10-12T05:25:24.042Z,0.00
2018-10-12T05:26:24.284Z,0.00
2018-10-12T05:27:24.356Z,0.00
2018-10-12T05:28:24.061Z,0.00
2018-10-12T05:29:24.047Z,0.00
2018-10-12T05:30:23.979Z,0.00
2018-10-12T05:31:23.966Z,0.00
2018-10-12T05:32:24.030Z,0.00
2018-10-12T05:33:23.944Z,0.00
2018-10-12T05:34:24.371Z,0.00
2018-10-12T05:35:23.923Z,0.00
2018-10-12T05:36:23.911Z,0.00
2018-10-12T05:37:23.977Z,0.00
2018-10-12T05:38:24.173Z,0.00
2018-10-12T05:39:23.879Z,0.00
2018-10-12T05:40:23.868Z,0.00
2018-10-12T05:41:24.193Z,0.00
2018-10-12T05:42:23.847Z,0.00
2018-10-12T05:43:23.914Z,0.00
2018-10-12T05:44:24.561Z,0.00
2018-10-12T05:45:23.830Z,0.00
2018-10-12T05:46:23.860Z,0.00
2018-10-12T05:47:23.795Z,0.00
2018-10-12T05:48:24.194Z,0.00
2018-10-12T05:49:23.776Z,5.62
2018-10-12T05:50:24.069Z,5.62
2018-10-12T05:51:23.815Z,5.62
2018-10-12T05:52:23.913Z,5.62
2018-10-12T05:53:23.792Z,5.62
2018-10-12T05:54:23.841Z,5.62
2018-10-12T05:55:24.316Z,5.62
2018-10-12T05:56:23.843Z,5.62
2018-10-12T05:57:23.703Z,5.62
2018-10-12T05:58:23.680Z,5.62
2018-10-12T05:59:23.741Z,5.62
2018-10-12T06:00:23.667Z,11.25
2018-10-12T06:01:23.709Z,11.25
2018-10-12T06:02:23.766Z,11.25
2018-10-12T06:03:23.625Z,11.25
2018-10-12T06:04:23.612Z,11.25
2018-10-12T06:05:23.599Z,11.25
2018-10-12T06:06:23.589Z,11.25
2018-10-12T06:07:23.578Z,11.25
2018-10-12T06:08:23.636Z,11.25
2018-10-12T06:09:23.583Z,16.88
2018-10-12T06:10:23.551Z,16.88
2018-10-12T06:11:23.600Z,16.88
2018-10-12T06:12:23.523Z,16.88
2018-10-12T06:13:23.512Z,16.88
2018-10-12T06:14:24.532Z,16.88
2018-10-12T06:15:23.553Z,16.88
2018-10-12T06:16:23.479Z,16.88
2018-10-12T06:17:23.470Z,16.88
2018-10-12T06:18:23.458Z,16.88
2018-10-12T06:19:23.446Z,22.50
2018-10-12T06:20:23.507Z,22.50
2018-10-12T06:21:23.970Z,22.50
2018-10-12T06:22:23.411Z,22.50
2018-10-12T06:23:23.403Z,22.50
2018-10-12T06:24:23.393Z,22.50
2018-10-12T06:25:23.394Z,22.50
2018-10-12T06:26:23.455Z,22.50
2018-10-12T06:27:23.361Z,22.50
2018-10-12T06:28:23.872Z,28.12
2018-10-12T06:29:23.342Z,28.12
2018-10-12T06:30:23.326Z,28.12
2018-10-12T06:31:23.317Z,28.12
2018-10-12T06:32:23.448Z,28.12
2018-10-12T06:33:23.294Z,28.12
2018-10-12T06:34:23.288Z,28.12
2018-10-12T06:35:24.485Z,28.12
2018-10-12T06:36:23.265Z,28.12
2018-10-12T06:37:23.252Z,28.12
2018-10-12T06:38:23.316Z,33.75
2018-10-12T06:39:23.229Z,33.75
2018-10-12T06:40:23.217Z,33.75
2018-10-12T06:41:23.286Z,33.75
2018-10-12T06:42:23.491Z,33.75
2018-10-12T06:43:23.185Z,33.75
2018-10-12T06:44:23.378Z,33.75
2018-10-12T06:45:23.162Z,33.75
2018-10-12T06:46:23.183Z,33.75
2018-10-12T06:47:23.142Z,39.38
2018-10-12T06:48:24.028Z,39.38
2018-10-12T06:49:25.348Z,39.38
2018-10-12T06:50:23.193Z,39.38
2018-10-12T06:51:24.031Z,39.38
2018-10-12T06:52:24.030Z,39.38
2018-10-12T06:53:28.027Z,39.38
2018-10-12T06:54:24.029Z,45.00
2018-10-12T06:55:25.026Z,45.00
2018-10-12T06:56:23.705Z,45.00
2018-10-12T06:57:23.033Z,45.00
2018-10-12T06:58:23.021Z,45.00
2018-10-12T06:59:23.015Z,45.00
2018-10-12T07:00:23.538Z,45.00
2018-10-12T07:01:23.527Z,45.00
2018-10-12T07:02:23.507Z,50.62
2018-10-12T07:03:23.528Z,50.62
2018-10-12T07:04:23.566Z,50.62
2018-10-12T07:05:22.993Z,50.62
2018-10-12T07:06:22.999Z,50.62
2018-10-12T07:07:23.676Z,50.62
2018-10-12T07:08:23.012Z,50.62
2018-10-12T07:09:22.902Z,50.62
2018-10-12T07:10:23.489Z,56.25
2018-10-12T07:11:22.880Z,56.25
2018-10-12T07:12:22.947Z,56.25
2018-10-12T07:13:23.488Z,56.25
2018-10-12T07:14:23.352Z,61.88
2018-10-12T07:15:22.839Z,95.62
2018-10-12T07:16:23.455Z,151.88
2018-10-12T07:17:22.893Z,219.38
2018-10-12T07:18:23.076Z,309.38
2018-10-12T07:19:23.344Z,405.00
2018-10-12T07:20:25.331Z,489.38
2018-10-12T07:21:22.991Z,545.62
2018-10-12T07:22:22.817Z,528.75
2018-10-12T07:23:22.777Z,562.50
2018-10-12T07:24:22.743Z,641.25
2018-10-12T07:25:22.791Z,675.00
2018-10-12T07:26:23.278Z,708.75
2018-10-12T07:27:22.711Z,810.00
2018-10-12T07:28:22.715Z,1018.12
2018-10-12T07:29:22.732Z,1085.62
2018-10-12T07:30:22.683Z,883.12
2018-10-12T07:31:22.729Z,635.62
2018-10-12T07:32:23.258Z,528.75
2018-10-12T07:33:22.665Z,472.50
2018-10-12T07:34:22.637Z,455.62
2018-10-12T07:35:22.627Z,433.12
2018-10-12T07:36:22.620Z,427.50
2018-10-12T07:37:22.934Z,433.12
2018-10-12T07:38:22.748Z,427.50
2018-10-12T07:39:22.583Z,421.88
2018-10-12T07:40:22.574Z,405.00
2018-10-12T07:41:22.598Z,393.75
2018-10-12T07:42:22.640Z,388.12
2018-10-12T07:43:22.544Z,388.12
2018-10-12T07:44:22.777Z,382.50
2018-10-12T07:45:22.524Z,376.88
2018-10-12T07:46:22.619Z,365.62
2018-10-12T07:47:22.680Z,354.38
2018-10-12T07:48:22.514Z,337.50
2018-10-12T07:49:22.828Z,315.00
2018-10-12T07:50:22.820Z,298.12
2018-10-12T07:51:22.539Z,275.62
2018-10-12T07:52:22.557Z,213.75
2018-10-12T07:53:22.623Z,135.00
2018-10-12T07:54:22.585Z,95.62
2018-10-12T07:55:22.519Z,95.62
2018-10-12T07:56:22.582Z,90.00
2018-10-12T07:57:22.838Z,90.00
2018-10-12T07:58:22.457Z,84.38
2018-10-12T07:59:22.459Z,84.38
2018-10-12T08:00:22.447Z,78.75
2018-10-12T08:01:22.376Z,84.38
2018-10-12T08:02:22.560Z,78.75
2018-10-12T08:03:22.387Z,78.75
2018-10-12T08:04:22.806Z,78.75
2018-10-12T08:05:22.311Z,78.75
2018-10-12T08:06:22.359Z,78.75
2018-10-12T08:07:22.290Z,78.75
2018-10-12T08:08:22.511Z,78.75
2018-10-12T08:09:22.270Z,78.75
2018-10-12T08:10:22.265Z,78.75
2018-10-12T08:11:22.248Z,78.75
2018-10-12T08:12:22.238Z,78.75
2018-10-12T08:13:22.237Z,78.75
2018-10-12T08:14:24.279Z,78.75
2018-10-12T08:15:22.281Z,78.75
2018-10-12T08:16:22.681Z,78.75
2018-10-12T08:17:22.192Z,78.75
2018-10-12T08:18:22.253Z,78.75
2018-10-12T08:19:23.159Z,78.75
2018-10-12T08:20:22.437Z,78.75
2018-10-12T08:21:23.168Z,84.38
2018-10-12T08:22:23.223Z,84.38
2018-10-12T08:23:25.506Z,84.38
2018-10-12T08:24:23.131Z,84.38
2018-10-12T08:25:23.037Z,90.00
2018-10-12T08:26:23.029Z,90.00
2018-10-12T08:27:22.080Z,90.00
2018-10-12T08:28:23.291Z,90.00
2018-10-12T08:29:24.129Z,90.00
2018-10-12T08:30:24.131Z,95.62
2018-10-12T08:31:22.098Z,95.62
2018-10-12T08:32:25.060Z,95.62
2018-10-12T08:33:22.534Z,95.62
2018-10-12T08:34:22.137Z,95.62
2018-10-12T08:35:22.583Z,95.62
2018-10-12T08:36:22.785Z,95.62
2018-10-12T08:37:22.065Z,95.62
2018-10-12T08:38:23.122Z,95.62
2018-10-12T08:39:22.649Z,95.62
2018-10-12T08:40:22.643Z,95.62
2018-10-12T08:41:22.261Z,95.62
2018-10-12T08:42:23.102Z,101.25
2018-10-12T08:43:22.532Z,101.25
2018-10-12T08:44:22.176Z,101.25
2018-10-12T08:45:21.948Z,101.25
2018-10-12T08:46:21.892Z,101.25
2018-10-12T08:47:21.904Z,101.25
2018-10-12T08:48:21.911Z,101.25
2018-10-12T08:49:22.280Z,106.88
2018-10-12T08:50:23.493Z,101.25
2018-10-12T08:51:21.864Z,101.25
2018-10-12T08:52:21.817Z,101.25
2018-10-12T08:53:21.809Z,106.88
2018-10-12T08:54:21.801Z,106.88
2018-10-12T08:55:21.801Z,106.88
2018-10-12T08:56:22.237Z,106.88
2018-10-12T08:57:21.800Z,106.88
2018-10-12T08:58:21.754Z,106.88
2018-10-12T08:59:21.859Z,106.88
2018-10-12T09:00:21.929Z,106.88
2018-10-12T09:01:22.174Z,106.88
2018-10-12T09:02:22.906Z,106.88
2018-10-12T09:03:21.908Z,106.88
2018-10-12T09:04:21.795Z,106.88
2018-10-12T09:05:21.683Z,106.88
2018-10-12T09:06:21.673Z,106.88
2018-10-12T09:07:21.661Z,112.50
2018-10-12T09:08:23.133Z,112.50
2018-10-12T09:09:21.734Z,118.12
2018-10-12T09:10:21.629Z,118.12
2018-10-12T09:11:21.761Z,123.75
2018-10-12T09:12:21.757Z,123.75
2018-10-12T09:13:21.710Z,129.38
2018-10-12T09:14:22.651Z,129.38
2018-10-12T09:15:21.971Z,129.38
2018-10-12T09:16:21.696Z,129.38
2018-10-12T09:17:21.559Z,129.38
2018-10-12T09:18:21.631Z,129.38
2018-10-12T09:19:21.577Z,129.38
2018-10-12T09:20:22.073Z,118.12
2018-10-12T09:21:21.732Z,123.75
2018-10-12T09:22:21.801Z,123.75
2018-10-12T09:23:21.563Z,112.50
2018-10-12T09:24:21.552Z,112.50
2018-10-12T09:25:21.502Z,118.12
2018-10-12T09:26:21.899Z,118.12
2018-10-12T09:27:21.939Z,118.12
2018-10-12T09:28:21.546Z,118.12
2018-10-12T09:29:21.430Z,118.12
2018-10-12T09:30:21.523Z,123.75
2018-10-12T09:31:22.675Z,123.75
2018-10-12T09:32:21.544Z,118.12
2018-10-12T09:33:21.390Z,123.75
2018-10-12T09:34:21.820Z,123.75
2018-10-12T09:35:21.385Z,129.38
2018-10-12T09:36:21.373Z,129.38
2018-10-12T09:37:21.410Z,129.38
2018-10-12T09:38:21.414Z,129.38
2018-10-12T09:39:22.127Z,129.38
2018-10-12T09:40:21.317Z,135.00
2018-10-12T09:41:21.312Z,129.38
2018-10-12T09:42:21.336Z,135.00
2018-10-12T09:43:21.394Z,135.00
2018-10-12T09:44:21.345Z,135.00
2018-10-12T09:45:21.275Z,135.00
2018-10-12T09:46:22.680Z,135.00
2018-10-12T09:47:21.244Z,135.00
2018-10-12T09:48:21.271Z,135.00
2018-10-12T09:49:21.227Z,135.00
2018-10-12T09:50:21.373Z,135.00
2018-10-12T09:51:21.246Z,135.00
2018-10-12T09:52:21.194Z,135.00
2018-10-12T09:53:21.467Z,135.00
2018-10-12T09:54:21.177Z,135.00
2018-10-12T09:55:21.161Z,140.62
2018-10-12T09:56:21.194Z,140.62
2018-10-12T09:57:21.241Z,140.62
2018-10-12T09:58:21.237Z,146.25
2018-10-12T09:59:21.482Z,140.62
2018-10-12T10:00:22.725Z,140.62
2018-10-12T10:01:21.131Z,135.00
2018-10-12T10:02:21.641Z,135.00
2018-10-12T10:03:23.063Z,135.00
2018-10-12T10:04:21.275Z,135.00
2018-10-12T10:05:21.261Z,135.00
2018-10-12T10:06:21.158Z,135.00
2018-10-12T10:07:21.565Z,135.00
2018-10-12T10:08:22.124Z,135.00
2018-10-12T10:09:21.069Z,135.00
2018-10-12T10:10:21.632Z,140.62
2018-10-12T10:11:21.069Z,140.62
2018-10-12T10:12:21.554Z,140.62
2018-10-12T10:13:21.047Z,140.62
2018-10-12T10:14:21.674Z,140.62
2018-10-12T10:15:21.054Z,135.00
2018-10-12T10:16:21.051Z,140.62
2018-10-12T10:17:21.539Z,140.62
2018-10-12T10:18:21.667Z,140.62
2018-10-12T10:19:21.219Z,140.62
2018-10-12T10:20:21.712Z,140.62
2018-10-12T10:21:21.616Z,140.62
2018-10-12T10:22:21.006Z,140.62
2018-10-12T10:23:21.490Z,140.62
2018-10-12T10:24:20.882Z,140.62
2018-10-12T10:25:21.557Z,140.62
2018-10-12T10:26:21.127Z,140.62
2018-10-12T10:27:21.437Z,146.25
2018-10-12T10:28:21.030Z,146.25
2018-10-12T10:29:20.851Z,146.25
2018-10-12T10:30:20.989Z,151.88
2018-10-12T10:31:20.776Z,151.88
2018-10-12T10:32:20.860Z,146.25
2018-10-12T10:33:20.905Z,151.88
2018-10-12T10:34:21.122Z,146.25
2018-10-12T10:35:20.810Z,151.88
2018-10-12T10:36:20.934Z,151.88
2018-10-12T10:37:20.966Z,151.88
2018-10-12T10:38:21.171Z,151.88
2018-10-12T10:39:20.962Z,151.88
2018-10-12T10:40:20.890Z,151.88
2018-10-12T10:41:20.946Z,151.88
2018-10-12T10:42:20.825Z,157.50
2018-10-12T10:43:20.681Z,157.50
2018-10-12T10:44:20.843Z,163.12
2018-10-12T10:45:21.633Z,157.50
2018-10-12T10:46:20.809Z,163.12
2018-10-12T10:47:20.611Z,163.12
2018-10-12T10:48:20.646Z,163.12
2018-10-12T10:49:20.587Z,168.75
2018-10-12T10:50:20.742Z,174.38
2018-10-12T10:51:21.095Z,185.62
2018-10-12T10:52:20.590Z,202.50
2018-10-12T10:53:21.043Z,236.25
2018-10-12T10:54:20.594Z,264.38
2018-10-12T10:55:20.720Z,416.25
2018-10-12T10:56:20.990Z,1119.38
2018-10-12T10:57:20.584Z,1783.12
2018-10-12T10:58:20.540Z,2002.50
2018-10-12T10:59:20.604Z,1923.75
2018-10-12T11:00:20.954Z,900.00
2018-10-12T11:01:20.578Z,1935.00
2018-10-12T11:02:20.762Z,1996.88
2018-10-12T11:03:20.524Z,1884.38
2018-10-12T11:04:20.528Z,1951.88
2018-10-12T11:05:20.729Z,1985.62
2018-10-12T11:06:20.565Z,2131.88
2018-10-12T11:07:20.470Z,2030.62
2018-10-12T11:08:20.880Z,2103.75
2018-10-12T11:09:20.388Z,2098.12
2018-10-12T11:10:20.510Z,2064.38
2018-10-12T11:11:20.399Z,1963.12
2018-10-12T11:12:20.597Z,2126.25
2018-10-12T11:13:20.520Z,1963.12
2018-10-12T11:14:20.697Z,2092.50
2018-10-12T11:15:20.375Z,1974.38
2018-10-12T11:16:22.046Z,1867.50
2018-10-12T11:17:20.825Z,1968.75
2018-10-12T11:18:20.465Z,275.62
2018-10-12T11:19:21.207Z,298.12
2018-10-12T11:20:22.750Z,1828.12
2018-10-12T11:21:20.627Z,1912.50
2018-10-12T11:22:20.383Z,2081.25
2018-10-12T11:23:20.507Z,2092.50
2018-10-12T11:24:20.793Z,2030.62
2018-10-12T11:25:20.233Z,2047.50
2018-10-12T12:56:25.475Z,101.25
2018-10-12T12:57:25.010Z,135.00
2018-10-12T12:58:25.042Z,123.75
2018-10-12T12:59:25.105Z,112.50
2018-10-12T13:00:25.079Z,129.38
2018-10-12T13:01:25.026Z,157.50
2018-10-12T13:02:25.780Z,140.62
2018-10-12T13:03:25.085Z,140.62
2018-10-12T13:04:24.905Z,163.12
2018-10-12T13:05:24.897Z,157.50
2018-10-12T13:06:25.577Z,151.88
2018-10-12T13:07:24.913Z,151.88
2018-10-12T13:08:24.931Z,123.75
2018-10-12T13:09:25.209Z,118.12
2018-10-12T13:10:25.095Z,140.62
2018-10-12T13:11:24.934Z,151.88
2018-10-12T13:12:24.818Z,151.88
2018-10-12T13:13:24.814Z,168.75
2018-10-12T13:14:25.146Z,151.88
2018-10-12T13:15:25.887Z,118.12
2018-10-12T13:16:25.285Z,135.00
2018-10-12T13:17:25.031Z,135.00
2018-10-12T13:18:24.812Z,140.62
2018-10-12T13:19:25.189Z,163.12
2018-10-12T13:20:25.887Z,168.75
2018-10-12T13:21:24.953Z,135.00
2018-10-12T13:22:24.760Z,123.75
2018-10-12T13:23:25.140Z,135.00
2018-10-12T13:24:24.867Z,140.62
2018-10-12T13:25:24.816Z,129.38
2018-10-12T13:26:27.011Z,123.75
2018-10-12T13:27:24.683Z,101.25
2018-10-12T13:28:24.704Z,106.88
2018-10-12T13:29:24.686Z,95.62
2018-10-12T13:30:24.726Z,95.62
2018-10-12T13:31:24.803Z,118.12
2018-10-12T13:32:25.058Z,123.75
2018-10-12T13:33:24.636Z,112.50
2018-10-12T13:34:24.712Z,106.88
2018-10-12T13:35:25.516Z,112.50
2018-10-12T13:36:25.128Z,123.75
2018-10-12T13:37:25.388Z,112.50
2018-10-12T13:38:25.092Z,118.12
2018-10-12T13:39:24.698Z,118.12
2018-10-12T13:40:24.671Z,106.88
2018-10-12T13:41:24.508Z,101.25
2018-10-12T13:42:24.552Z,101.25
2018-10-12T13:43:25.241Z,101.25
2018-10-12T13:44:24.872Z,106.88
2018-10-12T13:45:24.470Z,118.12
2018-10-12T13:46:25.272Z,118.12
2018-10-12T13:47:24.598Z,106.88
2018-10-12T13:48:24.651Z,106.88
2018-10-12T13:49:24.665Z,106.88
2018-10-12T13:50:24.993Z,101.25
2018-10-12T13:51:24.461Z,101.25
2018-10-12T13:52:24.441Z,84.38
2018-10-12T13:53:24.450Z,90.00
2018-10-12T13:54:24.647Z,90.00
2018-10-12T13:55:24.594Z,101.25
2018-10-12T13:56:24.597Z,106.88
2018-10-12T13:57:24.515Z,106.88
2018-10-12T13:58:24.344Z,101.25
2018-10-12T13:59:24.565Z,95.62
2018-10-12T14:00:24.468Z,95.62
2018-10-12T14:01:24.387Z,106.88
2018-10-12T14:02:24.685Z,112.50
2018-10-12T14:03:25.043Z,118.12
2018-10-12T14:04:24.612Z,112.50
2018-10-12T14:05:24.481Z,112.50
2018-10-12T14:06:24.298Z,106.88
2018-10-12T14:07:24.320Z,101.25
2018-10-12T14:08:26.671Z,95.62
2018-10-12T14:09:24.515Z,95.62
2018-10-12T14:10:24.329Z,95.62
2018-10-12T14:11:24.249Z,84.38
2018-10-12T14:12:24.348Z,84.38
2018-10-12T14:13:24.216Z,95.62
2018-10-12T14:14:25.595Z,90.00
2018-10-12T14:15:24.255Z,78.75
2018-10-12T14:16:24.259Z,78.75
2018-10-12T14:17:24.241Z,73.12
2018-10-12T14:18:24.462Z,73.12
2018-10-12T14:19:24.396Z,78.75
2018-10-12T14:20:24.292Z,78.75
2018-10-12T14:21:24.161Z,78.75
2018-10-12T14:22:26.126Z,78.75
2018-10-12T14:23:24.247Z,84.38
2018-10-12T14:24:24.207Z,78.75
2018-10-12T14:25:24.353Z,78.75
2018-10-12T14:26:27.237Z,84.38